Time;durP1;ratioP1;P1;durP2;ratioP2;P2;SDS_P1;SDS_P2;PMS_P1;PMS_P2;Temp;Humidity;BMP_temperature;BMP_pressure;BME280_temperature;BME280_humidity;BME280_pressure;Samples;Min_cycle;Max_cycle;Signal;HPM_P1;HPM_P2
2023/04/22 00:02:08;;;;;;;3.00;1.90;;;11.70;99.90;;;;;;4969331;28;20046;-85
2023/04/22 00:04:33;;;;;;;2.45;2.00;;;11.70;99.90;;;;;;4969613;28;20061;-85
2023/04/22 00:07:00;;;;;;;2.80;1.90;;;11.70;99.90;;;;;;4969261;28;20096;-85
2023/04/22 00:09:26;;;;;;;3.05;1.90;;;11.60;99.90;;;;;;4970327;28;20559;-85
2023/04/22 00:11:52;;;;;;;4.60;2.17;;;11.60;99.90;;;;;;4970615;28;20039;-85
2023/04/22 00:14:18;;;;;;;2.95;2.20;;;11.60;99.90;;;;;;4968995;28;20536;-86
2023/04/22 00:16:43;;;;;;;3.67;2.40;;;11.50;99.90;;;;;;4968665;28;20082;-85
2023/04/22 00:19:09;;;;;;;3.65;2.15;;;11.50;99.90;;;;;;4969298;28;20058;-85
2023/04/22 00:21:35;;;;;;;5.20;2.70;;;11.40;99.90;;;;;;4969977;28;20119;-85
2023/04/22 00:24:01;;;;;;;4.05;2.50;;;11.40;99.90;;;;;;4970423;28;20132;-85
2023/04/22 00:26:27;;;;;;;3.72;2.58;;;11.30;99.90;;;;;;4968611;28;20082;-85
2023/04/22 00:28:53;;;;;;;3.13;1.90;;;11.30;99.90;;;;;;4963273;28;20100;-85
2023/04/22 00:31:19;;;;;;;3.67;2.28;;;11.20;99.90;;;;;;4952569;28;20047;-85
2023/04/22 00:33:44;;;;;;;4.22;2.30;;;11.30;99.90;;;;;;4969106;28;20045;-85
2023/04/22 00:36:10;;;;;;;4.05;2.85;;;11.20;99.90;;;;;;4969494;28;20074;-85
2023/04/22 00:38:36;;;;;;;4.78;2.85;;;11.10;99.90;;;;;;4968552;28;20058;-85
2023/04/22 00:41:02;;;;;;;6.13;3.15;;;11.10;99.90;;;;;;4953154;28;20047;-85
2023/04/22 00:43:28;;;;;;;4.72;3.17;;;11.00;99.90;;;;;;4970232;28;20172;-85
2023/04/22 00:45:55;;;;;;;3.85;2.92;;;11.00;99.90;;;;;;4969880;28;20043;-86
2023/04/22 00:48:21;;;;;;;4.20;2.80;;;11.00;99.90;;;;;;4969724;28;20376;-87
2023/04/22 00:50:52;;;;;;;4.18;2.90;;;10.90;99.90;;;;;;4969581;28;20053;-85
2023/04/22 00:53:18;;;;;;;5.40;3.08;;;11.00;99.90;;;;;;4970307;28;20125;-85
2023/04/22 00:55:44;;;;;;;3.60;2.25;;;10.90;99.90;;;;;;4953046;28;20122;-85
2023/04/22 00:58:10;;;;;;;3.25;2.13;;;10.80;99.90;;;;;;4969908;28;20049;-84
2023/04/22 01:00:36;;;;;;;4.60;2.67;;;10.80;99.90;;;;;;4968083;28;20046;-85
2023/04/22 01:03:02;;;;;;;4.85;3.05;;;10.70;99.90;;;;;;4968643;28;20054;-85
2023/04/22 01:05:30;;;;;;;3.60;2.30;;;10.70;99.90;;;;;;4970052;28;20053;-85
2023/04/22 01:07:56;;;;;;;4.68;2.45;;;10.60;99.90;;;;;;4962430;28;20047;-85
2023/04/22 01:10:22;;;;;;;3.90;2.83;;;10.60;99.90;;;;;;4952741;28;20456;-85
2023/04/22 01:12:47;;;;;;;4.03;2.72;;;10.50;99.90;;;;;;4969891;28;20125;-85
2023/04/22 01:15:13;;;;;;;4.47;2.90;;;10.50;99.90;;;;;;4969582;28;20049;-85
2023/04/22 01:17:41;;;;;;;3.50;2.25;;;10.40;99.90;;;;;;4969132;28;20050;-85
2023/04/22 01:20:10;;;;;;;2.90;2.28;;;10.40;99.90;;;;;;4968489;28;20109;-85
2023/04/22 01:22:40;;;;;;;3.40;2.28;;;10.40;99.90;;;;;;4968872;28;20466;-85
2023/04/22 01:25:07;;;;;;;3.47;2.30;;;10.20;99.90;;;;;;4970423;28;20039;-86
2023/04/22 01:27:35;;;;;;;2.97;2.05;;;10.30;99.90;;;;;;4971634;28;20050;-85
2023/04/22 01:30:01;;;;;;;3.10;2.10;;;10.00;99.90;;;;;;4972587;28;20035;-85
2023/04/22 01:32:29;;;;;;;4.97;2.35;;;10.30;99.90;;;;;;4973044;28;20453;-85
2023/04/22 01:34:55;;;;;;;3.05;2.20;;;10.20;99.90;;;;;;4972743;28;20039;-85
2023/04/22 01:37:21;;;;;;;3.08;2.08;;;10.20;99.90;;;;;;4972278;28;20050;-84
2023/04/22 01:39:47;;;;;;;4.10;2.13;;;9.80;99.90;;;;;;4972776;28;20093;-84
2023/04/22 01:42:13;;;;;;;2.65;2.05;;;10.20;99.90;;;;;;4955631;28;20482;-85
2023/04/22 01:44:39;;;;;;;2.97;1.88;;;10.20;99.90;;;;;;4972669;28;20418;-85
2023/04/22 01:47:05;;;;;;;3.15;2.05;;;10.10;99.90;;;;;;4970715;28;20084;-84
2023/04/22 01:49:31;;;;;;;2.95;1.85;;;10.20;99.90;;;;;;4972884;28;20057;-84
2023/04/22 01:51:57;;;;;;;3.85;2.40;;;10.10;99.90;;;;;;4954945;28;20049;-85
2023/04/22 01:54:25;;;;;;;3.55;2.58;;;10.10;99.90;;;;;;4971644;28;20047;-85
2023/04/22 01:56:57;;;;;;;4.07;2.90;;;10.00;99.90;;;;;;4971220;28;20078;-84
2023/04/22 01:59:23;;;;;;;3.65;2.58;;;10.00;99.90;;;;;;4949758;28;20042;-84
2023/04/22 02:01:49;;;;;;;5.18;2.42;;;9.90;99.90;;;;;;4972135;28;20084;-86
2023/04/22 02:04:14;;;;;;;3.88;2.72;;;9.80;99.90;;;;;;4971649;28;20043;-85
2023/04/22 02:06:40;;;;;;;4.22;2.47;;;9.80;99.90;;;;;;4972460;28;20043;-85
2023/04/22 02:09:06;;;;;;;3.47;2.30;;;9.70;99.90;;;;;;4970509;28;20074;-85
2023/04/22 02:11:32;;;;;;;3.78;2.50;;;9.70;99.90;;;;;;4972446;28;20096;-85
2023/04/22 02:13:57;;;;;;;5.25;2.85;;;9.60;99.90;;;;;;4972081;28;20104;-84
2023/04/22 02:16:23;;;;;;;4.32;2.90;;;9.60;99.90;;;;;;4971429;28;20047;-85
2023/04/22 02:18:54;;;;;;;4.13;2.95;;;9.60;99.90;;;;;;4954255;28;20059;-85
2023/04/22 02:21:20;;;;;;;3.63;2.60;;;9.80;99.90;;;;;;4968444;28;20479;-85
2023/04/22 02:23:46;;;;;;;3.55;2.55;;;9.50;99.90;;;;;;4972167;28;20041;-85
2023/04/22 02:26:11;;;;;;;6.43;2.85;;;9.40;99.90;;;;;;4971181;28;20058;-85
2023/04/22 02:28:40;;;;;;;3.70;2.78;;;9.30;99.90;;;;;;4970843;28;20035;-85
2023/04/22 02:31:06;;;;;;;5.45;2.45;;;9.20;99.90;;;;;;4971643;28;20491;-84
2023/04/22 02:33:31;;;;;;;5.25;2.97;;;9.20;99.90;;;;;;4970215;28;20039;-85
2023/04/22 02:35:57;;;;;;;4.22;3.00;;;9.10;99.90;;;;;;4972123;28;20055;-85
2023/04/22 02:38:23;;;;;;;3.42;2.53;;;9.10;99.90;;;;;;4972153;28;20077;-86
2023/04/22 02:40:49;;;;;;;5.55;3.00;;;9.00;99.90;;;;;;4970755;28;20035;-86
2023/04/22 02:43:15;;;;;;;3.67;2.88;;;8.90;99.90;;;;;;4971792;28;20076;-84
2023/04/22 02:45:40;;;;;;;4.90;2.83;;;8.90;99.90;;;;;;4970774;28;20043;-87
2023/04/22 02:48:06;;;;;;;6.10;3.83;;;8.90;99.90;;;;;;4969876;28;20040;-85
2023/04/22 02:50:32;;;;;;;4.90;3.47;;;8.80;99.90;;;;;;4954405;28;20047;-84
2023/04/22 02:52:58;;;;;;;3.75;2.83;;;8.80;99.90;;;;;;4970629;28;20046;-87
2023/04/22 02:55:23;;;;;;;4.80;2.83;;;8.80;99.90;;;;;;4970652;28;20060;-85
2023/04/22 02:57:49;;;;;;;4.65;3.38;;;8.70;99.90;;;;;;4971461;28;20050;-84
2023/04/22 03:00:15;;;;;;;4.47;3.03;;;8.70;99.90;;;;;;4971489;28;20097;-85
2023/04/22 03:02:41;;;;;;;4.10;3.05;;;8.70;99.90;;;;;;4971085;28;20035;-85
2023/04/22 03:05:08;;;;;;;4.38;2.90;;;9.50;99.90;;;;;;4969828;28;20076;-86
2023/04/22 03:07:34;;;;;;;4.55;3.25;;;8.80;99.90;;;;;;4971299;28;20035;-87
2023/04/22 03:10:00;;;;;;;4.97;3.53;;;8.60;99.90;;;;;;4970549;28;20043;-86
2023/04/22 03:12:26;;;;;;;4.53;3.33;;;8.50;99.90;;;;;;4970154;28;20568;-86
2023/04/22 03:14:52;;;;;;;4.82;3.00;;;8.60;99.90;;;;;;4970134;28;20039;-85
2023/04/22 03:17:18;;;;;;;4.60;3.17;;;8.50;99.90;;;;;;4969766;28;20062;-84
2023/04/22 03:19:44;;;;;;;5.30;3.67;;;8.60;99.90;;;;;;4970109;28;20062;-84
2023/04/22 03:22:09;;;;;;;6.25;3.85;;;8.40;99.90;;;;;;4970558;28;20122;-84
2023/04/22 03:24:35;;;;;;;5.57;3.78;;;8.60;99.90;;;;;;4971390;28;20058;-85
2023/04/22 03:27:02;;;;;;;5.68;3.40;;;8.30;99.90;;;;;;4971374;28;20076;-84
2023/04/22 03:29:28;;;;;;;5.15;3.90;;;9.10;99.90;;;;;;4969528;28;20047;-86
2023/04/22 03:31:56;;;;;;;4.57;3.45;;;8.90;99.90;;;;;;4969977;28;20093;-85
2023/04/22 03:34:22;;;;;;;3.75;3.00;;;8.10;99.90;;;;;;4969246;28;20093;-86
2023/04/22 03:36:48;;;;;;;4.95;4.05;;;9.00;99.90;;;;;;4971079;28;20435;-84
2023/04/22 03:39:13;;;;;;;4.78;3.58;;;8.00;99.90;;;;;;4953663;28;20077;-87
2023/04/22 03:41:39;;;;;;;5.82;4.07;;;8.00;99.90;;;;;;4969536;28;20158;-84
2023/04/22 03:44:05;;;;;;;5.53;3.53;;;8.00;99.90;;;;;;4969772;28;20043;-87
2023/04/22 03:46:31;;;;;;;4.45;3.70;;;8.00;99.90;;;;;;4968807;28;20051;-85
2023/04/22 03:48:56;;;;;;;6.65;5.55;;;7.90;99.90;;;;;;4969367;28;20047;-85
2023/04/22 03:51:22;;;;;;;4.68;3.60;;;7.80;99.90;;;;;;4969639;28;20384;-86
2023/04/22 03:53:48;;;;;;;6.15;3.88;;;7.80;99.90;;;;;;4962342;28;20046;-84
2023/04/22 03:56:14;;;;;;;6.00;4.00;;;7.90;99.90;;;;;;4969581;28;20467;-85
2023/04/22 03:58:39;;;;;;;4.80;3.80;;;8.20;99.90;;;;;;4969458;28;20445;-84
2023/04/22 04:01:05;;;;;;;4.38;3.47;;;7.60;99.90;;;;;;4970832;28;20035;-84
2023/04/22 04:03:31;;;;;;;6.03;4.28;;;8.10;99.90;;;;;;4969612;28;20051;-84
2023/04/22 04:05:57;;;;;;;6.82;4.35;;;7.40;99.90;;;;;;4970562;28;20051;-84
2023/04/22 04:08:22;;;;;;;6.45;3.90;;;8.00;99.90;;;;;;4969612;28;20039;-85
2023/04/22 04:10:48;;;;;;;5.82;3.75;;;7.30;99.90;;;;;;4968944;28;20042;-85
2023/04/22 04:13:14;;;;;;;5.63;3.80;;;7.40;99.90;;;;;;4970401;28;20134;-84
2023/04/22 04:15:39;;;;;;;5.47;3.65;;;7.60;99.90;;;;;;4970314;28;20043;-84
2023/04/22 04:18:05;;;;;;;6.20;4.05;;;7.30;99.90;;;;;;4969589;28;20051;-84
2023/04/22 04:20:31;;;;;;;6.15;4.03;;;8.20;99.90;;;;;;4970994;28;20130;-85
2023/04/22 04:22:57;;;;;;;4.38;3.25;;;6.60;99.90;;;;;;4970190;28;20078;-84
2023/04/22 04:25:22;;;;;;;4.53;3.75;;;7.40;99.90;;;;;;4953753;28;20053;-83
2023/04/22 04:27:50;;;;;;;4.03;3.35;;;8.20;99.90;;;;;;4970532;28;20081;-84
2023/04/22 04:30:16;;;;;;;5.13;3.83;;;7.30;99.90;;;;;;4970394;28;20081;-83
2023/04/22 04:32:44;;;;;;;6.70;4.03;;;7.30;99.90;;;;;;4970301;28;20437;-83
2023/04/22 04:35:13;;;;;;;5.38;3.50;;;7.20;99.90;;;;;;4969174;28;20058;-84
2023/04/22 04:37:41;;;;;;;7.40;4.75;;;8.10;99.90;;;;;;4970401;28;20043;-84
2023/04/22 04:40:09;;;;;;;5.35;4.18;;;7.20;99.90;;;;;;4969336;28;20051;-83
2023/04/22 04:42:36;;;;;;;4.97;4.13;;;7.20;99.90;;;;;;4968467;28;20051;-85
2023/04/22 04:45:02;;;;;;;6.13;4.18;;;7.20;99.90;;;;;;4969153;28;20057;-84
2023/04/22 04:47:28;;;;;;;4.88;4.20;;;7.20;99.90;;;;;;4968487;28;20050;-84
2023/04/22 04:49:57;;;;;;;6.57;3.90;;;7.60;99.90;;;;;;4969372;28;20070;-84
2023/04/22 04:52:23;;;;;;;5.95;3.80;;;7.20;99.90;;;;;;4969911;28;20104;-84
2023/04/22 04:54:48;;;;;;;7.53;3.55;;;6.90;99.90;;;;;;4968744;28;20043;-84
2023/04/22 04:57:15;;;;;;;4.63;3.47;;;7.20;99.90;;;;;;4970426;28;20039;-84
2023/04/22 04:59:40;;;;;;;5.25;3.03;;;7.70;99.90;;;;;;4970059;28;20441;-84
2023/04/22 05:02:06;;;;;;;5.55;3.13;;;7.20;99.90;;;;;;4971980;28;20047;-83
2023/04/22 05:04:32;;;;;;;4.57;3.35;;;7.20;99.90;;;;;;4971969;28;20042;-85
2023/04/22 05:06:57;;;;;;;4.85;3.03;;;7.50;99.90;;;;;;4973651;28;20049;-84
2023/04/22 05:09:23;;;;;;;4.55;2.97;;;7.30;99.90;;;;;;4972431;28;20133;-84
2023/04/22 05:11:49;;;;;;;5.80;3.63;;;7.30;99.90;;;;;;4973153;28;20047;-84
2023/04/22 05:14:15;;;;;;;5.53;3.38;;;7.80;99.90;;;;;;4973280;28;20046;-84
2023/04/22 05:16:41;;;;;;;3.50;2.65;;;7.20;99.90;;;;;;4971619;28;20399;-84
2023/04/22 05:19:07;;;;;;;3.47;2.80;;;7.30;99.90;;;;;;4971548;28;20059;-83
2023/04/22 05:21:33;;;;;;;5.70;3.60;;;7.40;99.90;;;;;;4972014;28;20050;-84
2023/04/22 05:23:58;;;;;;;7.00;3.22;;;7.40;99.90;;;;;;4971302;28;20046;-84
2023/04/22 05:26:24;;;;;;;5.00;3.10;;;8.10;99.90;;;;;;4973235;28;20031;-84
2023/04/22 05:28:50;;;;;;;4.45;2.80;;;7.90;99.90;;;;;;4972239;28;20371;-85
2023/04/22 05:31:16;;;;;;;4.90;3.20;;;7.50;99.90;;;;;;4971766;28;20550;-84
2023/04/22 05:33:44;;;;;;;3.83;3.30;;;7.50;99.90;;;;;;4971844;28;20161;-84
2023/04/22 05:36:09;;;;;;;4.38;3.33;;;7.60;99.90;;;;;;4971586;28;20084;-84
2023/04/22 05:38:35;;;;;;;4.28;2.97;;;7.60;99.90;;;;;;4973156;28;20046;-84
2023/04/22 05:41:01;;;;;;;4.47;3.22;;;7.60;99.90;;;;;;4971672;28;20043;-84
2023/04/22 05:43:26;;;;;;;4.28;2.95;;;7.70;99.90;;;;;;4971151;28;20096;-84
2023/04/22 05:45:52;;;;;;;5.15;2.97;;;7.70;99.90;;;;;;4971613;28;20051;-84
2023/04/22 05:48:18;;;;;;;4.72;3.05;;;7.70;99.90;;;;;;4971353;28;20126;-84
2023/04/22 05:50:44;;;;;;;71.18;66.40;;;7.80;99.90;;;;;;4971149;28;20444;-84
2023/04/22 05:53:10;;;;;;;4.68;2.97;;;7.80;99.90;;;;;;4972990;28;20126;-84
2023/04/22 05:55:35;;;;;;;4.55;2.90;;;7.60;99.90;;;;;;4972099;28;20517;-84
2023/04/22 05:58:01;;;;;;;4.43;3.00;;;8.00;99.90;;;;;;4972700;28;20051;-84
2023/04/22 06:00:28;;;;;;;4.90;2.85;;;8.00;99.90;;;;;;4972705;28;20049;-85
2023/04/22 06:02:54;;;;;;;4.22;3.05;;;8.10;99.90;;;;;;4971507;28;20096;-85
2023/04/22 06:05:19;;;;;;;3.70;3.08;;;8.40;99.90;;;;;;4970798;28;20059;-84
2023/04/22 06:07:45;;;;;;;4.95;3.40;;;8.30;99.90;;;;;;4971059;28;20116;-84
2023/04/22 06:10:11;;;;;;;5.65;3.28;;;8.40;99.90;;;;;;4970991;28;20971;-85
2023/04/22 06:12:37;;;;;;;3.92;3.03;;;8.90;99.90;;;;;;4970888;28;20412;-84
2023/04/22 06:15:03;;;;;;;5.13;3.28;;;8.50;99.90;;;;;;4970872;28;20092;-84
2023/04/22 06:17:29;;;;;;;4.63;3.10;;;8.60;99.90;;;;;;4970745;28;20042;-84
2023/04/22 06:19:55;;;;;;;4.03;3.03;;;8.70;99.90;;;;;;4970997;28;20058;-85
2023/04/22 06:22:21;;;;;;;4.00;3.42;;;8.80;99.90;;;;;;4971058;28;20051;-84
2023/04/22 06:24:46;;;;;;;5.22;2.95;;;8.80;99.90;;;;;;4971765;28;20501;-85
2023/04/22 06:27:12;;;;;;;4.35;3.00;;;8.90;99.90;;;;;;4954638;28;20051;-85
2023/04/22 06:29:38;;;;;;;3.70;2.72;;;9.00;99.90;;;;;;4972451;28;20035;-85
2023/04/22 06:32:04;;;;;;;3.85;2.50;;;9.50;99.90;;;;;;4971228;28;20055;-85
2023/04/22 06:34:30;;;;;;;3.60;2.47;;;9.30;99.90;;;;;;4970795;28;20074;-85
2023/04/22 06:36:56;;;;;;;5.45;2.63;;;9.30;99.90;;;;;;4971211;28;20050;-87
2023/04/22 06:39:21;;;;;;;6.22;2.75;;;9.40;99.90;;;;;;4969622;28;20043;-85
2023/04/22 06:41:48;;;;;;;3.30;2.55;;;9.80;99.90;;;;;;4972150;28;20454;-85
2023/04/22 06:44:16;;;;;;;3.90;2.70;;;9.50;99.90;;;;;;4970430;28;20051;-88
2023/04/22 06:51:00;;;;;;;58.17;54.63;;;9.70;99.90;;;;;;4969189;28;20191;-85
2023/04/22 06:53:26;;;;;;;3.80;2.83;;;9.80;99.90;;;;;;4969349;28;20043;-85
2023/04/22 06:55:53;;;;;;;4.40;2.88;;;10.80;99.90;;;;;;4971617;28;20054;-84
2023/04/22 06:58:20;;;;;;;4.05;2.65;;;10.10;99.90;;;;;;4970158;28;20506;-84
2023/04/22 07:00:46;;;;;;;2.63;1.98;;;10.20;99.90;;;;;;4971420;28;20129;-85
2023/04/22 07:03:11;;;;;;;2.80;2.10;;;9.90;99.90;;;;;;4970860;28;20118;-84
2023/04/22 07:05:37;;;;;;;3.63;2.45;;;10.50;99.90;;;;;;4969827;28;20070;-84
2023/04/22 07:08:03;;;;;;;2.92;1.90;;;10.60;99.90;;;;;;4970539;28;20111;-84
2023/04/22 07:10:29;;;;;;;560.85;339.13;;;10.70;99.90;;;;;;4970374;28;20054;-84
2023/04/22 07:12:57;;;;;;;694.42;389.70;;;10.80;99.90;;;;;;4971227;28;20039;-85
2023/04/22 07:15:22;;;;;;;3.10;2.30;;;10.60;99.90;;;;;;4971505;28;20046;-85
2023/04/22 07:17:48;;;;;;;392.38;270.90;;;11.00;99.90;;;;;;4953679;28;20042;-85
2023/04/22 07:20:14;;;;;;;3.47;2.38;;;11.10;99.90;;;;;;4970187;28;20173;-85
2023/04/22 07:22:40;;;;;;;3.17;2.20;;;11.20;99.90;;;;;;4969082;28;20074;-85
2023/04/22 07:25:06;;;;;;;3.80;2.40;;;11.40;99.90;;;;;;4970766;28;20053;-85
2023/04/22 07:27:35;;;;;;;3.95;2.70;;;11.40;99.90;;;;;;4969874;28;20046;-85
2023/04/22 07:30:01;;;;;;;3.00;2.08;;;11.50;99.90;;;;;;4971008;28;20498;-87
2023/04/22 07:32:27;;;;;;;63.50;27.90;;;11.70;99.90;;;;;;4969326;28;20125;-84
2023/04/22 07:34:53;;;;;;;3.47;2.30;;;11.80;99.90;;;;;;4969958;28;20121;-84
2023/04/22 07:37:20;;;;;;;3.65;2.15;;;12.00;99.90;;;;;;4968410;28;20038;-86
2023/04/22 07:39:45;;;;;;;3.55;2.17;;;12.10;99.90;;;;;;4970028;28;20043;-85
2023/04/22 07:42:11;;;;;;;2.35;1.80;;;12.20;99.90;;;;;;4969289;28;20483;-86
2023/04/22 07:44:37;;;;;;;2.55;1.67;;;12.30;99.90;;;;;;4971135;28;20050;-85
2023/04/22 07:47:03;;;;;;;2.60;1.85;;;12.40;99.90;;;;;;4970015;28;20414;-85
2023/04/22 07:49:29;;;;;;;3.28;2.28;;;12.50;99.90;;;;;;4953501;28;20552;-86
2023/04/22 07:51:56;;;;;;;2.40;1.90;;;12.60;99.90;;;;;;4969230;28;20042;-85
2023/04/22 07:54:21;;;;;;;2.70;1.90;;;12.80;99.90;;;;;;4968631;28;20130;-85
2023/04/22 07:56:47;;;;;;;3.30;2.47;;;12.90;99.90;;;;;;4971134;28;20118;-86
2023/04/22 07:59:13;;;;;;;3.58;2.20;;;13.00;99.90;;;;;;4969625;28;20395;-86
2023/04/22 08:01:38;;;;;;;3.50;2.20;;;13.10;99.90;;;;;;4969127;28;20051;-86
2023/04/22 08:04:04;;;;;;;3.67;2.45;;;13.20;99.90;;;;;;4964636;28;20038;-88
2023/04/22 08:06:30;;;;;;;3.70;2.70;;;13.30;99.90;;;;;;4969400;28;20364;-85
2023/04/22 08:08:56;;;;;;;4.90;3.10;;;13.40;99.90;;;;;;4961655;28;20043;-87
2023/04/22 08:11:22;;;;;;;5.50;2.92;;;13.50;99.90;;;;;;4970478;28;20043;-85
2023/04/22 08:13:48;;;;;;;7.15;3.88;;;13.60;99.90;;;;;;4969234;28;20130;-85
2023/04/22 08:16:13;;;;;;;3.22;2.40;;;13.70;99.90;;;;;;4969207;28;20053;-86
2023/04/22 08:18:39;;;;;;;8.45;2.90;;;13.80;99.90;;;;;;4970038;28;20058;-86
2023/04/22 08:21:05;;;;;;;3.42;2.30;;;13.90;99.90;;;;;;4970068;28;20118;-87
2023/04/22 08:23:31;;;;;;;2.83;1.85;;;14.10;99.90;;;;;;4970074;28;20070;-85
2023/04/22 08:25:57;;;;;;;2.58;2.05;;;14.20;99.90;;;;;;4969086;28;20069;-86
2023/04/22 08:28:22;;;;;;;4.15;2.53;;;14.90;99.90;;;;;;4953339;28;20118;-85
2023/04/22 08:30:48;;;;;;;2.92;1.80;;;14.50;99.90;;;;;;4970556;28;20039;-87
2023/04/22 08:33:15;;;;;;;4.03;2.40;;;14.60;99.90;;;;;;4968685;28;20065;-84
2023/04/22 08:35:41;;;;;;;3.95;2.67;;;14.70;99.90;;;;;;4972146;28;20129;-84
2023/04/22 08:38:06;;;;;;;4.00;2.55;;;14.80;99.90;;;;;;4955821;28;20260;-84
2023/04/22 08:40:34;;;;;;;2.90;2.08;;;15.00;99.90;;;;;;4973802;28;20043;-85
2023/04/22 08:43:00;;;;;;;4.85;2.80;;;15.10;99.90;;;;;;4973585;28;20050;-86
2023/04/22 08:45:26;;;;;;;3.35;2.42;;;15.40;99.90;;;;;;4973993;28;20039;-84
2023/04/22 08:47:52;;;;;;;3.03;1.85;;;15.60;99.90;;;;;;4971945;28;20047;-85
2023/04/22 08:50:21;;;;;;;3.13;2.10;;;15.90;99.90;;;;;;4972450;28;20047;-84
2023/04/22 08:52:47;;;;;;;1.95;1.55;;;16.10;99.90;;;;;;4973103;28;20489;-85
2023/04/22 08:55:12;;;;;;;1.90;1.30;;;16.30;99.90;;;;;;4972128;28;20065;-85
2023/04/22 08:57:40;;;;;;;2.67;1.60;;;16.40;99.90;;;;;;4972506;28;20046;-85
2023/04/22 09:00:10;;;;;;;157.55;109.65;;;16.60;99.90;;;;;;4971840;28;20100;-84
2023/04/22 09:02:37;;;;;;;900.23;600.00;;;16.80;99.90;;;;;;4955902;28;20122;-85
2023/04/22 09:05:05;;;;;;;1036.03;648.33;;;17.00;99.90;;;;;;4971920;28;20047;-84
2023/04/22 09:07:32;;;;;;;1011.23;651.73;;;17.10;99.90;;;;;;4972990;28;20058;-85
2023/04/22 09:09:58;;;;;;;986.20;658.73;;;17.30;99.90;;;;;;4972153;28;20053;-84
2023/04/22 09:12:24;;;;;;;1230.83;690.57;;;17.40;99.90;;;;;;4971146;28;20095;-84
2023/04/22 09:14:51;;;;;;;1138.30;714.30;;;17.40;99.90;;;;;;4971758;28;20074;-84
2023/04/22 09:17:28;;;;;;;1042.97;559.83;;;17.50;99.90;;;;;;4972930;28;20125;-84
2023/04/22 09:20:01;;;;;;;710.10;262.60;;;17.60;99.90;;;;;;4970663;28;20317;-84
2023/04/22 09:22:28;;;;;;;571.03;189.40;;;17.80;99.90;;;;;;4970975;28;20042;-86
2023/04/22 09:24:54;;;;;;;539.83;192.15;;;17.90;99.90;;;;;;4972036;28;20593;-86
2023/04/22 09:27:24;;;;;;;485.17;187.88;;;18.00;99.90;;;;;;4971614;28;20062;-85
2023/04/22 09:29:51;;;;;;;446.00;179.75;;;18.20;99.90;;;;;;4971925;28;20095;-84
2023/04/22 09:32:17;;;;;;;349.67;157.20;;;18.40;99.90;;;;;;4971631;28;20055;-84
2023/04/22 09:34:53;;;;;;;222.40;141.48;;;18.40;99.90;;;;;;4971669;28;20051;-85
2023/04/22 09:37:22;;;;;;;;;;;18.60;99.90;;;;;;4971213;28;20407;-85
2023/04/22 09:39:49;;;;;;;301.13;152.25;;;18.80;99.90;;;;;;4963516;28;20592;-85
2023/04/22 09:42:18;;;;;;;3.08;1.85;;;19.00;99.90;;;;;;4972965;28;20047;-86
2023/04/22 09:44:46;;;;;;;4.03;2.28;;;19.10;99.90;;;;;;4971474;28;20047;-85
2023/04/22 09:47:12;;;;;;;869.30;507.25;;;19.20;99.90;;;;;;4970938;28;20042;-85
2023/04/22 09:49:38;;;;;;;4.78;3.30;;;19.30;99.90;;;;;;4972545;28;20066;-86
2023/04/22 09:52:04;;;;;;;827.50;457.87;;;19.40;99.90;;;;;;4955038;28;20576;-86
2023/04/22 09:54:37;;;;;;;545.77;187.60;;;19.50;99.90;;;;;;4972308;28;20047;-87
2023/04/22 09:57:03;;;;;;;384.30;160.40;;;19.60;99.90;;;;;;4955420;28;20054;-87
2023/04/22 09:59:30;;;;;;;593.93;269.33;;;19.80;99.90;;;;;;4970379;28;20384;-85
2023/04/22 10:02:03;;;;;;;371.60;165.15;;;19.90;99.90;;;;;;5003321;28;20047;-84
2023/04/22 10:04:29;;;;;;;346.98;160.93;;;20.00;99.90;;;;;;4972577;28;20050;-87
2023/04/22 10:06:57;;;;;;;400.70;169.88;;;20.10;99.90;;;;;;4972796;28;20043;-90
2023/04/22 10:09:26;;;;;;;456.13;165.80;;;20.30;99.90;;;;;;4971607;28;20122;-85
2023/04/22 10:12:02;;;;;;;372.83;152.40;;;20.20;99.90;;;;;;4971144;28;20064;-87
2023/04/22 10:15:21;;;;;;;417.55;165.05;;;20.20;99.90;;;;;;4972360;28;20043;-89
2023/04/22 10:17:46;;;;;;;387.33;162.85;;;20.30;99.90;;;;;;4930857;29;20447;-87
2023/04/22 10:20:26;;;;;;;405.27;161.10;;;20.40;99.90;;;;;;4915504;29;20522;-85
2023/04/22 10:22:53;;;;;;;332.88;152.02;;;20.40;99.90;;;;;;4998578;28;20130;-86
2023/04/22 10:25:24;;;;;;;;;;;20.50;99.90;;;;;;4983523;28;20178;-86
2023/04/22 10:28:34;;;;;;;875.25;446.00;;;20.60;99.90;;;;;;4913893;29;20501;-88
2023/04/22 10:31:24;;;;;;;345.55;202.15;;;20.80;99.90;;;;;;4892736;28;20067;-88
2023/04/22 10:37:12;;;;;;;2.30;1.25;;;21.00;99.90;;;;;;4876167;28;20053;-87
2023/04/22 10:39:48;;;;;;;18.48;6.55;;;21.20;99.90;;;;;;4863367;29;20518;-87
2023/04/22 10:42:16;;;;;;;2.67;1.30;;;21.40;99.90;;;;;;4900539;28;20052;-87
2023/04/22 10:44:53;;;;;;;4.55;1.30;;;21.50;99.90;;;;;;4885009;28;20232;-86
2023/04/22 10:47:32;;;;;;;565.88;398.08;;;21.60;99.90;;;;;;4910306;28;20394;-83
2023/04/22 10:54:06;;;;;;;8.57;2.63;;;21.70;99.90;;;;;;4944250;29;20223;-87
2023/04/22 10:56:54;;;;;;;1.80;1.40;;;21.70;99.90;;;;;;4902918;28;20461;-87
2023/04/22 10:59:20;;;;;;;3.60;1.42;;;21.70;99.90;;;;;;4884459;29;20057;-86
2023/04/22 11:01:48;;;;;;;20.55;5.13;;;21.80;99.90;;;;;;4888793;29;20599;-86
2023/04/22 11:04:41;;;;;;;920.50;619.15;;;22.00;99.90;;;;;;4874842;29;20053;-88
2023/04/22 11:07:25;;;;;;;883.30;591.23;;;22.10;99.90;;;;;;4858541;29;20531;-86
2023/04/22 11:10:06;;;;;;;884.03;570.23;;;22.20;99.90;;;;;;4859386;29;20058;-87
2023/04/22 11:12:37;;;;;;;1015.10;568.27;;;22.50;99.90;;;;;;4888868;29;20049;-86
2023/04/22 11:15:18;;;;;;;824.67;472.47;;;22.50;99.90;;;;;;4848273;29;20140;-86
2023/04/22 11:17:52;;;;;;;568.23;183.53;;;22.60;99.90;;;;;;4843981;29;20541;-87
2023/04/22 11:20:36;;;;;;;3.33;1.20;;;22.70;99.90;;;;;;4875253;28;20059;-87
2023/04/22 11:23:02;;;;;;;2.78;1.48;;;22.80;99.90;;;;;;4894486;28;20047;-87
2023/04/22 11:25:28;;;;;;;1.85;1.17;;;22.90;99.90;;;;;;4889942;29;20627;-86
2023/04/22 11:27:59;;;;;;;1.67;1.08;;;22.90;99.90;;;;;;4873863;29;20052;-86
2023/04/22 11:30:30;;;;;;;814.77;575.47;;;22.90;99.90;;;;;;4915432;28;20082;-86
2023/04/22 11:33:05;;;;;;;1132.70;748.67;;;22.90;98.80;;;;;;4971089;28;20125;-87
2023/04/22 11:35:34;;;;;;;1027.97;651.50;;;23.00;99.80;;;;;;4954447;28;20542;-86
2023/04/22 11:38:02;;;;;;;932.87;580.97;;;23.90;99.90;;;;;;4953647;28;20133;-84
2023/04/22 11:40:31;;;;;;;966.37;553.57;;;23.40;99.90;;;;;;4968802;28;20046;-83
2023/04/22 11:43:31;;;;;;;924.50;442.30;;;23.50;99.80;;;;;;4967905;28;20554;-90
2023/04/22 11:46:07;;;;;;;701.97;313.98;;;23.60;99.20;;;;;;4996494;28;20061;-88
2023/04/22 11:48:42;;;;;;;553.80;237.55;;;23.60;98.50;;;;;;4964434;28;20047;-87
2023/04/22 11:51:14;;;;;;;702.17;345.00;;;23.60;98.20;;;;;;4968825;28;20039;-87
2023/04/22 11:53:51;;;;;;;683.40;312.02;;;23.60;97.40;;;;;;4953992;28;20046;-86
2023/04/22 11:56:26;;;;;;;734.57;298.97;;;23.50;98.00;;;;;;4971363;28;20126;-90
2023/04/22 11:58:53;;;;;;;809.63;364.63;;;23.50;99.10;;;;;;4952540;28;20075;-86
2023/04/22 12:01:19;;;;;;;894.87;513.43;;;23.50;98.10;;;;;;4953770;28;20049;-86
2023/04/22 12:03:52;;;;;;;797.97;340.70;;;23.60;98.60;;;;;;4953605;28;20122;-85
2023/04/22 12:06:18;;;;;;;779.33;383.40;;;23.70;99.40;;;;;;4969257;28;20078;-87
2023/04/22 12:08:53;;;;;;;835.57;374.83;;;23.80;98.60;;;;;;4969766;28;20428;-87
2023/04/22 12:11:20;;;;;;;712.13;297.42;;;24.00;98.50;;;;;;4971141;28;20039;-85
2023/04/22 12:13:49;;;;;;;679.27;205.83;;;24.30;98.40;;;;;;4954153;28;20459;-87
2023/04/22 12:16:24;;;;;;;810.63;468.40;;;24.50;97.40;;;;;;4970580;28;20041;-86
2023/04/22 12:18:51;;;;;;;747.50;293.87;;;24.50;96.30;;;;;;4946142;28;20136;-87
2023/04/22 12:21:27;;;;;;;332.50;163.80;;;24.40;95.70;;;;;;4970154;28;20059;-87
2023/04/22 12:24:10;;;;;;;1.13;0.80;;;24.10;95.90;;;;;;4966961;28;20051;-87
2023/04/22 12:26:38;;;;;;;1.58;1.02;;;24.10;96.20;;;;;;4969488;28;20061;-86
2023/04/22 12:29:13;;;;;;;1.48;0.90;;;24.00;96.40;;;;;;4969830;28;20096;-87
2023/04/22 12:31:39;;;;;;;2.03;1.10;;;23.90;95.90;;;;;;4969228;28;20043;-86
2023/04/22 12:34:05;;;;;;;1.40;0.90;;;23.80;96.50;;;;;;4970907;28;20051;-86
2023/04/22 12:36:31;;;;;;;1.40;0.90;;;23.60;96.90;;;;;;4969435;28;20050;-86
2023/04/22 12:38:57;;;;;;;1.42;1.00;;;23.40;97.30;;;;;;4961651;28;20039;-87
2023/04/22 12:41:23;;;;;;;1.95;0.85;;;23.20;98.30;;;;;;4953665;28;20445;-86
2023/04/22 12:43:49;;;;;;;2.42;1.15;;;23.10;98.60;;;;;;4970279;28;20097;-86
2023/04/22 12:46:18;;;;;;;1.67;0.90;;;23.00;98.60;;;;;;4953097;28;20081;-87
2023/04/22 12:48:50;;;;;;;1.73;1.10;;;22.80;98.10;;;;;;4968788;28;20475;-86
2023/04/22 12:51:18;;;;;;;1.52;0.95;;;22.80;98.60;;;;;;4969414;28;20130;-86
2023/04/22 12:53:55;;;;;;;2.08;0.80;;;22.90;99.70;;;;;;4968794;28;20041;-87
2023/04/22 12:56:24;;;;;;;1.80;0.73;;;23.30;98.70;;;;;;4970259;28;20078;-86
2023/04/22 12:58:52;;;;;;;1.92;0.98;;;23.90;98.90;;;;;;4970073;28;20051;-87